createdAt,value
2023-05-15T00:01:16.385Z,81.30
2023-05-15T00:04:18.456Z,81.20
2023-05-15T00:07:20.579Z,80.80
2023-05-15T00:10:22.741Z,81.30
2023-05-15T00:13:24.784Z,82.40
2023-05-15T00:16:29.009Z,81.70
2023-05-15T00:19:30.998Z,81.80
2023-05-15T00:22:33.245Z,81.50
2023-05-15T00:25:37.431Z,82.50
2023-05-15T00:28:39.593Z,82.60
2023-05-15T00:31:41.635Z,82.20
2023-05-15T00:34:43.706Z,81.80
2023-05-15T00:37:45.678Z,82.10
2023-05-15T00:40:48.723Z,82.10
2023-05-15T00:43:52.106Z,82.00
2023-05-15T00:46:56.297Z,82.00
2023-05-15T00:49:58.564Z,81.80
2023-05-15T00:53:01.149Z,81.50
2023-05-15T00:56:05.856Z,81.40
2023-05-15T00:59:08.374Z,81.00
2023-05-15T01:02:10.501Z,81.40
2023-05-15T01:05:14.420Z,81.60
2023-05-15T01:08:37.681Z,81.90
2023-05-15T01:11:42.551Z,81.60
2023-05-15T01:14:45.966Z,81.40
2023-05-15T01:17:48.135Z,81.00
2023-05-15T01:21:25.802Z,81.50
2023-05-15T01:24:57.532Z,81.20
2023-05-15T01:28:05.984Z,82.80
2023-05-15T01:31:15.003Z,82.70
2023-05-15T01:34:19.410Z,82.60
2023-05-15T01:37:26.628Z,82.80
2023-05-15T01:40:29.436Z,82.90
2023-05-15T01:43:33.819Z,82.30
2023-05-15T01:46:39.449Z,82.30
2023-05-15T01:49:44.611Z,81.90
2023-05-15T01:52:54.079Z,82.60
2023-05-15T01:55:57.092Z,83.10
2023-05-15T01:59:00.394Z,84.40
2023-05-15T02:02:10.733Z,83.70
2023-05-15T02:05:13.233Z,83.50
2023-05-15T02:08:15.688Z,83.10
2023-05-15T02:11:18.621Z,82.60
2023-05-15T02:14:22.746Z,82.40
2023-05-15T02:17:24.934Z,82.80
2023-05-15T02:20:27.032Z,83.20
2023-05-15T02:23:29.740Z,83.10
2023-05-15T02:26:31.707Z,82.80
2023-05-15T02:30:02.841Z,82.50
2023-05-15T02:33:40.041Z,82.10
2023-05-15T02:36:46.975Z,82.60
2023-05-15T02:39:52.588Z,81.80
2023-05-15T02:42:57.934Z,82.00
2023-05-15T02:46:02.069Z,82.60
2023-05-15T02:49:04.804Z,83.00
2023-05-15T02:52:07.295Z,82.30
2023-05-15T02:55:10.022Z,83.30
2023-05-15T02:58:12.394Z,82.90
2023-05-15T03:01:14.413Z,83.50
2023-05-15T03:04:16.629Z,83.10
2023-05-15T03:07:18.785Z,83.30
2023-05-15T03:10:20.857Z,83.10
2023-05-15T03:13:23.027Z,83.20
2023-05-15T03:16:25.121Z,82.90
2023-05-15T03:19:27.198Z,82.80
2023-05-15T03:22:29.553Z,82.80
2023-05-15T03:25:31.607Z,82.50
2023-05-15T03:28:33.633Z,83.50
2023-05-15T03:31:35.791Z,83.40
2023-05-15T03:34:39.780Z,83.20
2023-05-15T03:37:43.024Z,83.00
2023-05-15T03:40:47.157Z,83.10
2023-05-15T03:43:51.194Z,82.70
2023-05-15T03:46:56.516Z,82.80
2023-05-15T03:49:58.831Z,82.80
2023-05-15T03:53:01.125Z,82.70
2023-05-15T03:56:03.410Z,82.70
2023-05-15T03:59:05.545Z,82.40
2023-05-15T04:02:08.184Z,82.60
2023-05-15T04:05:10.506Z,82.70
2023-05-15T04:08:15.333Z,82.40
2023-05-15T04:11:17.614Z,82.20
2023-05-15T04:14:19.782Z,82.50
2023-05-15T04:17:22.629Z,82.70
2023-05-15T04:20:25.623Z,82.20
2023-05-15T04:23:27.842Z,82.20
2023-05-15T04:26:30.046Z,82.60
2023-05-15T04:29:32.276Z,82.30
2023-05-15T04:32:34.752Z,82.30
2023-05-15T04:35:36.930Z,82.60
2023-05-15T04:38:39.128Z,82.80
2023-05-15T04:41:41.209Z,83.20
2023-05-15T04:44:43.308Z,83.10
2023-05-15T04:47:45.463Z,83.10
2023-05-15T04:50:47.616Z,83.10
2023-05-15T04:53:49.646Z,83.20
2023-05-15T04:56:51.799Z,82.80
2023-05-15T04:59:54.075Z,82.70
2023-05-15T05:02:56.174Z,82.60
2023-05-15T05:06:00.524Z,82.60
2023-05-15T05:09:02.750Z,82.20
2023-05-15T05:12:04.850Z,81.90
2023-05-15T05:15:07.601Z,81.50
2023-05-15T05:18:09.754Z,81.50
2023-05-15T05:21:12.067Z,81.60
2023-05-15T05:24:14.164Z,81.20
2023-05-15T05:27:16.511Z,81.10
2023-05-15T05:30:18.729Z,81.00
2023-05-15T05:33:20.991Z,80.60
2023-05-15T05:36:23.028Z,79.60
2023-05-15T05:39:25.184Z,79.30
2023-05-15T05:42:27.208Z,78.30
2023-05-15T05:45:30.164Z,77.80
2023-05-15T05:48:32.206Z,76.50
2023-05-15T05:51:36.014Z,74.80
2023-05-15T05:54:38.251Z,74.40
2023-05-15T05:57:40.512Z,72.80
2023-05-15T06:00:50.330Z,72.50
2023-05-15T06:03:53.858Z,72.30
2023-05-15T06:06:55.851Z,73.50
2023-05-15T06:09:57.970Z,72.80
2023-05-15T06:13:00.140Z,73.70
2023-05-15T06:16:02.287Z,73.80
2023-05-15T06:19:04.614Z,73.50
2023-05-15T06:22:06.925Z,73.70
2023-05-15T06:25:09.133Z,71.90
2023-05-15T06:28:11.237Z,69.70
2023-05-15T06:31:13.227Z,69.20
2023-05-15T06:34:15.306Z,67.80
2023-05-15T06:37:17.423Z,67.40
2023-05-15T06:40:20.651Z,68.80
2023-05-15T06:43:22.697Z,67.80
2023-05-15T06:46:24.796Z,66.00
2023-05-15T06:49:27.761Z,63.60
2023-05-15T06:52:29.938Z,61.90
2023-05-15T06:55:32.575Z,60.90
2023-05-15T06:58:34.757Z,61.30
2023-05-15T07:01:37.000Z,63.10
2023-05-15T07:04:39.090Z,64.50
2023-05-15T07:07:41.151Z,64.20
2023-05-15T07:10:43.069Z,64.80
2023-05-15T07:13:45.183Z,65.50
2023-05-15T07:16:47.182Z,64.80
2023-05-15T07:19:49.357Z,65.20
2023-05-15T07:22:56.329Z,63.70
2023-05-15T07:25:59.162Z,64.10
2023-05-15T07:29:01.382Z,64.90
2023-05-15T07:32:03.685Z,64.20
2023-05-15T07:35:06.310Z,61.80
2023-05-15T07:38:09.200Z,59.60
2023-05-15T07:41:11.434Z,56.40
2023-05-15T07:44:13.698Z,54.80
2023-05-15T07:47:15.772Z,53.40
2023-05-15T07:50:18.175Z,53.50
2023-05-15T07:53:20.160Z,54.60
2023-05-15T07:56:22.627Z,55.00
2023-05-15T07:59:25.302Z,55.70
2023-05-15T08:02:27.415Z,57.30
2023-05-15T08:05:29.627Z,57.50
2023-05-15T08:08:34.427Z,58.50
2023-05-15T08:11:36.941Z,58.50
2023-05-15T08:14:39.051Z,59.80
2023-05-15T08:17:41.164Z,60.40
2023-05-15T08:20:43.410Z,60.80
2023-05-15T08:23:45.479Z,60.10
2023-05-15T08:26:47.419Z,60.90
2023-05-15T08:29:49.478Z,60.70
2023-05-15T08:32:51.534Z,60.90
2023-05-15T08:35:54.254Z,61.80
2023-05-15T08:38:56.402Z,60.80
2023-05-15T08:42:19.469Z,57.70
2023-05-15T08:45:21.977Z,54.50
2023-05-15T08:48:27.893Z,52.20
2023-05-15T08:51:30.415Z,52.10
2023-05-15T08:54:33.362Z,49.90
2023-05-15T08:57:36.049Z,49.50
2023-05-15T09:00:38.469Z,47.20
2023-05-15T09:03:40.525Z,47.90
2023-05-15T09:06:44.114Z,47.00
2023-05-15T09:09:47.475Z,45.00
2023-05-15T09:12:51.902Z,45.60
2023-05-15T09:15:54.089Z,44.40
2023-05-15T09:18:59.239Z,43.40
2023-05-15T09:22:16.536Z,42.50
2023-05-15T09:25:39.345Z,41.80
2023-05-15T09:28:41.390Z,41.30
2023-05-15T09:31:43.865Z,43.50
2023-05-15T09:34:46.202Z,41.20
2023-05-15T09:37:59.008Z,39.80
2023-05-15T09:41:06.065Z,40.20
2023-05-15T09:44:27.439Z,39.90
2023-05-15T09:47:30.129Z,42.30
2023-05-15T09:50:38.619Z,40.90
2023-05-15T09:53:40.782Z,39.30
2023-05-15T09:56:47.256Z,38.40
2023-05-15T09:59:50.060Z,39.80
2023-05-15T10:02:52.183Z,39.10
2023-05-15T10:06:00.543Z,38.50
2023-05-15T10:09:03.706Z,38.10
2023-05-15T10:12:08.446Z,39.90
2023-05-15T10:15:11.614Z,42.10
2023-05-15T10:18:15.166Z,40.40
2023-05-15T10:21:18.735Z,40.00
2023-05-15T10:24:21.732Z,43.20
2023-05-15T10:27:24.793Z,41.00
2023-05-15T10:30:27.399Z,41.40
2023-05-15T10:33:30.385Z,40.00
2023-05-15T10:36:35.545Z,40.50
2023-05-15T10:39:39.028Z,39.70
2023-05-15T10:42:43.557Z,40.30
2023-05-15T10:45:46.613Z,39.90
2023-05-15T10:48:48.935Z,41.80
2023-05-15T11:05:02.453Z,45.10
2023-05-15T11:08:16.423Z,46.40
2023-05-15T11:11:52.726Z,47.00
2023-05-15T11:14:54.808Z,55.50
2023-05-15T11:18:04.484Z,60.60
2023-05-15T11:21:06.966Z,60.90
2023-05-15T11:24:12.140Z,66.40
2023-05-15T11:27:18.400Z,61.30
2023-05-15T11:30:22.152Z,67.20
2023-05-15T11:33:24.455Z,69.30
2023-05-15T11:36:28.658Z,71.40
2023-05-15T11:39:31.020Z,70.60
2023-05-15T11:42:33.060Z,70.10
2023-05-15T11:45:38.545Z,70.20
2023-05-15T11:48:42.666Z,71.90
2023-05-15T11:51:44.718Z,67.10
2023-05-15T11:54:46.660Z,70.10
2023-05-15T11:57:48.957Z,68.60
2023-05-15T12:00:51.831Z,68.30
2023-05-15T12:03:53.979Z,71.00
2023-05-15T12:06:56.237Z,70.10
2023-05-15T12:09:58.236Z,66.90
2023-05-15T12:13:00.261Z,69.70
2023-05-15T12:16:05.373Z,62.70
2023-05-15T12:19:07.321Z,61.80
2023-05-15T12:22:09.568Z,64.00
2023-05-15T12:25:13.000Z,58.80
2023-05-15T12:28:15.324Z,58.90
2023-05-15T12:31:18.052Z,58.40
2023-05-15T12:34:21.054Z,60.10
2023-05-15T12:37:23.122Z,58.10
2023-05-15T12:40:25.317Z,55.10
2023-05-15T12:43:27.683Z,51.20
2023-05-15T12:46:32.992Z,52.60
2023-05-15T12:49:37.860Z,54.80
2023-05-15T12:52:41.257Z,50.90
2023-05-15T12:55:45.575Z,52.60
2023-05-15T12:58:48.301Z,50.80
2023-05-15T13:01:50.833Z,49.00
2023-05-15T13:04:52.997Z,48.20
2023-05-15T13:07:55.470Z,50.70
2023-05-15T13:10:59.470Z,50.00
2023-05-15T13:14:01.462Z,50.40
2023-05-15T13:17:03.417Z,51.10
2023-05-15T13:20:06.451Z,52.70
2023-05-15T13:23:10.064Z,50.10
2023-05-15T13:26:12.120Z,49.00
2023-05-15T13:29:14.084Z,50.80
2023-05-15T13:32:16.059Z,50.50
2023-05-15T13:35:18.520Z,50.90
2023-05-15T13:38:20.494Z,50.80
2023-05-15T13:41:22.458Z,56.00
2023-05-15T13:44:24.519Z,57.50
2023-05-15T13:47:26.665Z,66.10
2023-05-15T13:50:30.412Z,65.20
2023-05-15T13:53:33.283Z,64.90
2023-05-15T13:56:35.159Z,66.00
2023-05-15T13:59:37.470Z,69.90
2023-05-15T14:02:43.736Z,65.90
2023-05-15T14:05:45.770Z,70.20
2023-05-15T14:08:47.623Z,70.30
2023-05-15T14:11:49.905Z,69.40
2023-05-15T14:14:51.764Z,71.20
2023-05-15T14:17:53.768Z,72.20
2023-05-15T14:20:55.784Z,70.70
2023-05-15T14:23:57.804Z,70.60
2023-05-15T14:26:59.811Z,71.00
2023-05-15T14:30:01.749Z,73.40
2023-05-15T14:33:03.783Z,71.30
2023-05-15T14:36:05.812Z,70.20
2023-05-15T14:39:07.838Z,72.00
2023-05-15T14:42:11.101Z,72.50
2023-05-15T14:45:13.084Z,73.20
2023-05-15T14:48:15.078Z,69.10
2023-05-15T14:51:19.111Z,67.40
2023-05-15T14:54:22.270Z,68.90
2023-05-15T14:57:24.162Z,68.30
2023-05-15T15:00:28.744Z,67.00
2023-05-15T15:03:33.254Z,65.40
2023-05-15T15:06:36.126Z,65.00
2023-05-15T15:09:38.328Z,63.80
2023-05-15T15:12:40.312Z,63.20
2023-05-15T15:15:42.219Z,64.20
2023-05-15T15:18:44.617Z,62.20
2023-05-15T15:21:46.671Z,63.70
2023-05-15T15:24:48.701Z,59.40
2023-05-15T15:27:51.170Z,61.80
2023-05-15T15:30:53.195Z,62.40
2023-05-15T15:33:55.687Z,63.00
2023-05-15T15:36:57.649Z,62.60
2023-05-15T15:39:59.994Z,61.60
2023-05-15T15:43:02.047Z,59.40
2023-05-15T15:46:04.139Z,62.40
2023-05-15T15:49:06.922Z,61.90
2023-05-15T15:52:09.439Z,61.70
2023-05-15T15:55:11.582Z,61.00
2023-05-15T15:58:15.004Z,59.70
2023-05-15T16:01:17.580Z,61.20
2023-05-15T16:04:19.762Z,61.40
2023-05-15T16:07:21.805Z,59.40
2023-05-15T16:10:23.917Z,58.40
2023-05-15T16:13:25.861Z,59.00
2023-05-15T16:16:28.189Z,59.80
2023-05-15T16:19:30.410Z,61.70
2023-05-15T16:22:32.702Z,61.30
2023-05-15T16:25:34.828Z,62.40
2023-05-15T16:28:37.190Z,62.20
2023-05-15T16:31:39.370Z,63.30
2023-05-15T16:34:41.486Z,64.00
2023-05-15T16:37:43.293Z,61.90
2023-05-15T16:40:46.232Z,62.30
2023-05-15T16:43:48.372Z,64.20
2023-05-15T16:46:50.497Z,63.70
2023-05-15T16:49:52.549Z,63.90
2023-05-15T16:52:54.840Z,63.10
2023-05-15T16:55:56.897Z,63.40
2023-05-15T16:58:58.849Z,64.20
2023-05-15T17:02:01.072Z,65.50
2023-05-15T17:05:03.817Z,63.90
2023-05-15T17:08:07.055Z,63.80
2023-05-15T17:11:09.867Z,64.00
2023-05-15T17:14:11.831Z,65.60
2023-05-15T17:17:13.822Z,64.30
2023-05-15T17:20:15.866Z,65.80
2023-05-15T17:23:17.868Z,66.30
2023-05-15T17:26:20.002Z,66.40
2023-05-15T17:29:22.344Z,65.70
2023-05-15T17:32:24.392Z,66.60
2023-05-15T17:35:26.663Z,67.10
2023-05-15T17:38:28.872Z,66.60
2023-05-15T17:41:30.813Z,68.60
2023-05-15T17:44:33.017Z,69.20
2023-05-15T17:47:35.140Z,70.40
2023-05-15T17:50:37.779Z,72.30
2023-05-15T17:53:39.822Z,71.70
2023-05-15T17:56:41.807Z,74.40
2023-05-15T17:59:46.224Z,75.50
2023-05-15T18:02:48.316Z,76.40
2023-05-15T18:05:50.296Z,77.10
2023-05-15T18:08:52.348Z,77.30
2023-05-15T18:11:54.375Z,77.40
2023-05-15T18:14:56.387Z,78.30
2023-05-15T18:17:58.898Z,79.10
2023-05-15T18:21:00.986Z,78.80
2023-05-15T18:24:03.226Z,79.80
2023-05-15T18:27:05.441Z,80.80
2023-05-15T18:30:07.689Z,79.90
2023-05-15T18:33:09.718Z,80.10
2023-05-15T18:36:11.741Z,80.90
2023-05-15T18:39:13.737Z,79.40
2023-05-15T18:42:16.002Z,80.60
2023-05-15T18:45:19.046Z,81.00
2023-05-15T18:48:21.841Z,81.30
2023-05-15T18:51:24.188Z,80.20
2023-05-15T18:54:27.155Z,79.80
2023-05-15T18:57:29.230Z,80.50
2023-05-15T19:00:37.820Z,81.20
2023-05-15T19:03:40.943Z,80.60
2023-05-15T19:06:43.343Z,80.60
2023-05-15T19:09:45.281Z,80.90
2023-05-15T19:12:47.272Z,80.80
2023-05-15T19:15:52.703Z,80.90
2023-05-15T19:18:55.294Z,81.00
2023-05-15T19:21:57.276Z,81.30
2023-05-15T19:24:59.422Z,80.50
2023-05-15T19:28:01.685Z,80.30
2023-05-15T19:31:03.692Z,81.30
2023-05-15T19:34:08.241Z,80.00
2023-05-15T19:37:10.968Z,80.00
2023-05-15T19:40:13.256Z,80.20
2023-05-15T19:43:15.251Z,81.20
2023-05-15T19:46:18.186Z,80.90
2023-05-15T19:49:20.417Z,81.70
2023-05-15T19:52:22.332Z,82.00
2023-05-15T19:55:24.753Z,82.30
2023-05-15T19:58:26.928Z,81.80
2023-05-15T20:01:28.978Z,81.60
2023-05-15T20:04:30.947Z,82.40
2023-05-15T20:07:32.973Z,83.50
2023-05-15T20:10:35.032Z,83.10
2023-05-15T20:13:37.358Z,82.40
2023-05-15T20:16:39.577Z,83.40
2023-05-15T20:19:41.631Z,84.80
2023-05-15T20:22:44.719Z,82.70
2023-05-15T20:25:47.649Z,81.80
2023-05-15T20:28:49.601Z,81.80
2023-05-15T20:31:52.020Z,81.00
2023-05-15T20:34:54.181Z,81.90
2023-05-15T20:37:56.483Z,82.40
2023-05-15T20:41:00.710Z,83.30
2023-05-15T20:44:03.035Z,83.00
2023-05-15T20:47:05.722Z,83.50
2023-05-15T20:50:08.076Z,83.50
2023-05-15T20:53:10.112Z,84.30
2023-05-15T20:56:12.176Z,85.20
2023-05-15T20:59:16.763Z,85.20
2023-05-15T21:02:18.809Z,84.80
2023-05-15T21:05:20.801Z,84.80
2023-05-15T21:08:23.290Z,85.30
2023-05-15T21:11:25.347Z,85.10
2023-05-15T21:14:27.387Z,85.10
2023-05-15T21:17:29.398Z,85.70
2023-05-15T21:20:32.827Z,84.30
2023-05-15T21:23:36.502Z,83.80
2023-05-15T21:26:38.495Z,84.40
2023-05-15T21:29:40.554Z,83.50
2023-05-15T21:32:42.621Z,83.70
2023-05-15T21:35:44.668Z,83.40
2023-05-15T21:38:46.694Z,83.80
2023-05-15T21:41:48.739Z,83.90
2023-05-15T21:44:50.681Z,78.90
2023-05-15T21:47:52.756Z,78.70
2023-05-15T21:50:58.031Z,78.50
2023-05-15T21:54:00.413Z,78.70
2023-05-15T21:57:02.442Z,77.60
2023-05-15T22:00:04.913Z,78.60
2023-05-15T22:03:07.991Z,78.40
2023-05-15T22:06:10.030Z,78.80
2023-05-15T22:09:12.184Z,78.40
2023-05-15T22:12:14.207Z,78.20
2023-05-15T22:15:16.205Z,78.50
2023-05-15T22:18:18.272Z,78.30
2023-05-15T22:21:20.345Z,77.20
2023-05-15T22:24:22.291Z,77.60
2023-05-15T22:27:24.298Z,78.40
2023-05-15T22:30:26.346Z,79.60
2023-05-15T22:33:28.385Z,80.60
2023-05-15T22:36:30.500Z,80.10
2023-05-15T22:39:33.300Z,79.90
2023-05-15T22:42:35.497Z,80.30
2023-05-15T22:45:37.540Z,80.50
2023-05-15T22:48:39.469Z,80.10
2023-05-15T22:51:41.545Z,81.70
2023-05-15T22:54:43.570Z,81.20
2023-05-15T22:57:45.672Z,81.30
2023-05-15T23:00:47.871Z,81.60
2023-05-15T23:03:50.988Z,82.40
2023-05-15T23:06:53.843Z,81.60
2023-05-15T23:09:55.875Z,80.90
2023-05-15T23:12:57.873Z,81.30
2023-05-15T23:15:59.956Z,81.00
2023-05-15T23:19:02.087Z,81.40
2023-05-15T23:22:04.324Z,80.40
2023-05-15T23:25:07.445Z,79.00
2023-05-15T23:28:09.525Z,78.80
2023-05-15T23:31:15.714Z,79.00
2023-05-15T23:34:18.931Z,79.70
2023-05-15T23:37:20.856Z,80.50
2023-05-15T23:40:22.838Z,81.00
2023-05-15T23:43:24.850Z,81.00
2023-05-15T23:46:26.912Z,80.60
2023-05-15T23:49:28.890Z,81.50
2023-05-15T23:52:30.946Z,81.90
2023-05-15T23:55:33.757Z,81.80
2023-05-15T23:58:38.633Z,82.20
